Time;durP1;ratioP1;P1;durP2;ratioP2;P2;SDS_P1;SDS_P2;PMS_P1;PMS_P2;Temp;Humidity;BMP_temperature;BMP_pressure;BME280_temperature;BME280_humidity;BME280_pressure;Samples;Min_cycle;Max_cycle;Signal;HPM_P1;HPM_P2
2022/01/14 00:00:55;;;;;;;92.15;31.13;;;;;;;;;;5136500;27;20085;-81
2022/01/14 00:03:22;;;;;;;78.75;31.13;;;;;;;;;;5136576;27;20039;-82
2022/01/14 00:05:48;;;;;;;78.68;30.08;;;;;;;;;;5118440;27;20126;-82
2022/01/14 00:08:14;;;;;;;78.80;31.45;;;;;;;;;;5136406;27;20126;-82
2022/01/14 00:10:47;;;;;;;70.93;30.60;;;;;;;;;;5118320;27;20042;-83
2022/01/14 00:13:37;;;;;;;68.65;29.48;;;;;;;;;;5136164;27;20050;-82
2022/01/14 00:15:59;;;;;;;69.65;30.98;;;;;;;;;;5118018;27;20050;-82
2022/01/14 00:18:25;;;;;;;69.65;29.48;;;;;;;;;;5118048;27;20049;-83
2022/01/14 00:20:51;;;;;;;57.38;27.80;;;;;;;;;;5136234;27;20039;-83
2022/01/14 00:23:19;;;;;;;64.70;29.13;;;;;;;;;;5117571;27;20080;-82
2022/01/14 00:34:14;;;;;;;59.65;27.02;;;;;;;;;;5100944;27;20095;-82
2022/01/14 00:36:40;;;;;;;53.70;27.17;;;;;;;;;;5136032;27;20422;-82
2022/01/14 00:39:08;;;;;;;54.35;27.00;;;;;;;;;;5135937;27;20051;-82
2022/01/14 00:41:35;;;;;;;50.03;25.88;;;;;;;;;;5117512;27;20035;-81
2022/01/14 00:44:03;;;;;;;45.55;25.15;;;;;;;;;;5135430;27;20047;-82
2022/01/14 00:46:29;;;;;;;47.70;25.60;;;;;;;;;;5117359;27;20039;-83
2022/01/14 00:48:56;;;;;;;45.35;23.45;;;;;;;;;;5135531;27;20047;-81
2022/01/14 00:51:22;;;;;;;38.17;22.85;;;;;;;;;;5135684;27;20050;-82
2022/01/14 00:53:48;;;;;;;48.97;24.92;;;;;;;;;;5116855;27;20403;-84
2022/01/14 00:57:01;;;;;;;38.58;23.67;;;;;;;;;;5135567;27;20080;-82
2022/01/14 00:59:16;;;;;;;41.25;23.20;;;;;;;;;;5113933;27;20050;-83
2022/01/14 01:01:48;;;;;;;40.53;24.35;;;;;;;;;;5135500;27;20083;-82
2022/01/14 01:04:15;;;;;;;37.78;22.60;;;;;;;;;;5135597;27;20054;-83
2022/01/14 01:06:41;;;;;;;45.45;24.00;;;;;;;;;;5135382;27;20126;-82
2022/01/14 01:09:12;;;;;;;41.05;24.65;;;;;;;;;;5135306;27;20035;-82
2022/01/14 01:11:43;;;;;;;39.05;23.45;;;;;;;;;;5117352;27;20132;-82
2022/01/14 01:14:17;;;;;;;39.95;23.35;;;;;;;;;;5135569;27;20066;-82
2022/01/14 01:16:43;;;;;;;39.33;22.80;;;;;;;;;;5135239;27;20039;-83
2022/01/14 01:19:10;;;;;;;38.22;23.15;;;;;;;;;;5135079;27;20121;-80
2022/01/14 01:21:36;;;;;;;38.40;23.15;;;;;;;;;;5113183;28;20064;-83
2022/01/14 01:24:03;;;;;;;36.50;22.25;;;;;;;;;;5113287;28;20160;-82
2022/01/14 01:26:33;;;;;;;38.72;23.73;;;;;;;;;;5114571;28;20506;-81
2022/01/14 01:31:37;;;;;;;36.13;21.98;;;;;;;;;;5114116;28;20130;-82
2022/01/14 01:34:04;;;;;;;40.15;22.77;;;;;;;;;;5113017;28;20043;-81
2022/01/14 01:36:30;;;;;;;40.47;23.05;;;;;;;;;;5113999;28;20047;-82
2022/01/14 01:38:56;;;;;;;35.58;21.95;;;;;;;;;;5113086;28;20122;-82
2022/01/14 01:41:23;;;;;;;44.65;23.42;;;;;;;;;;5113970;28;20054;-83
2022/01/14 01:43:54;;;;;;;36.85;21.85;;;;;;;;;;5114153;28;20054;-83
2022/01/14 01:46:21;;;;;;;40.33;23.05;;;;;;;;;;5095931;28;20043;-81
2022/01/14 01:48:48;;;;;;;41.47;22.88;;;;;;;;;;5112791;28;20184;-81
2022/01/14 01:51:14;;;;;;;38.25;23.50;;;;;;;;;;5113836;28;20046;-83
2022/01/14 01:53:40;;;;;;;37.85;23.17;;;;;;;;;;5114046;28;20040;-82
2022/01/14 01:56:06;;;;;;;40.78;24.05;;;;;;;;;;5112184;28;20402;-82
2022/01/14 01:58:32;;;;;;;36.03;22.70;;;;;;;;;;5113753;28;20366;-82
2022/01/14 02:00:59;;;;;;;41.72;22.52;;;;;;;;;;5113687;28;20047;-81
2022/01/14 02:03:25;;;;;;;38.00;22.42;;;;;;;;;;5113729;28;20083;-82
2022/01/14 02:05:51;;;;;;;43.63;24.38;;;;;;;;;;5113654;28;20043;-82
2022/01/14 02:08:17;;;;;;;40.78;23.17;;;;;;;;;;5113420;28;20075;-81
2022/01/14 02:10:43;;;;;;;39.15;22.55;;;;;;;;;;5113493;28;20028;-82
2022/01/14 02:13:11;;;;;;;41.13;23.80;;;;;;;;;;5112515;28;20039;-83
2022/01/14 02:15:47;;;;;;;40.53;23.40;;;;;;;;;;5112395;28;20048;-82
2022/01/14 02:23:55;;;;;;;42.55;23.42;;;;;;;;;;5113304;28;20043;-82
2022/01/14 02:26:22;;;;;;;40.75;24.23;;;;;;;;;;5112189;28;20111;-83
2022/01/14 02:28:49;;;;;;;40.17;23.55;;;;;;;;;;5113011;28;20054;-83
2022/01/14 02:31:16;;;;;;;41.10;22.70;;;;;;;;;;5113401;28;20044;-82
2022/01/14 02:33:42;;;;;;;40.85;23.92;;;;;;;;;;5095139;28;20071;-82
2022/01/14 02:36:08;;;;;;;42.45;24.30;;;;;;;;;;5112069;28;20491;-82
2022/01/14 02:38:34;;;;;;;49.05;23.95;;;;;;;;;;5113051;28;20044;-82
2022/01/14 02:41:00;;;;;;;39.83;23.27;;;;;;;;;;5112004;28;20096;-82
2022/01/14 02:43:27;;;;;;;42.78;23.13;;;;;;;;;;5112860;28;20044;-81
2022/01/14 02:45:55;;;;;;;40.45;23.08;;;;;;;;;;5113575;28;20558;-82
2022/01/14 02:48:23;;;;;;;41.17;23.55;;;;;;;;;;5113047;28;20050;-82
2022/01/14 02:51:12;;;;;;;38.67;23.83;;;;;;;;;;5113049;28;20331;-83
2022/01/14 02:56:06;;;;;;;41.92;22.13;;;;;;;;;;5111907;28;20381;-82
2022/01/14 02:58:33;;;;;;;41.95;23.13;;;;;;;;;;5113122;28;20082;-81
2022/01/14 03:01:11;;;;;;;40.85;22.50;;;;;;;;;;5112930;28;20092;-82
2022/01/14 03:03:38;;;;;;;42.63;24.08;;;;;;;;;;5111772;28;20043;-82
2022/01/14 03:06:05;;;;;;;44.22;23.83;;;;;;;;;;5113851;28;20046;-82
2022/01/14 03:08:32;;;;;;;43.70;23.27;;;;;;;;;;5117217;28;20042;-82
2022/01/14 03:11:00;;;;;;;41.22;23.63;;;;;;;;;;5117208;28;20131;-82
2022/01/14 03:13:26;;;;;;;45.45;24.30;;;;;;;;;;5116965;28;20425;-81
2022/01/14 03:15:53;;;;;;;45.55;23.80;;;;;;;;;;5115998;28;20090;-81
2022/01/14 03:18:30;;;;;;;47.03;24.77;;;;;;;;;;5116967;27;20127;-83
2022/01/14 03:21:09;;;;;;;39.95;24.05;;;;;;;;;;5115988;28;20040;-82
2022/01/14 03:23:42;;;;;;;43.22;24.02;;;;;;;;;;5115206;28;20051;-83
2022/01/14 03:26:08;;;;;;;41.17;23.95;;;;;;;;;;5116786;28;20433;-83
2022/01/14 03:28:34;;;;;;;40.97;24.65;;;;;;;;;;5115407;28;20127;-81
2022/01/14 03:31:00;;;;;;;46.13;24.40;;;;;;;;;;5115556;28;20042;-82
2022/01/14 03:33:26;;;;;;;48.35;25.30;;;;;;;;;;5115325;28;20055;-82
2022/01/14 03:35:52;;;;;;;44.55;25.38;;;;;;;;;;5116509;28;20508;-82
2022/01/14 03:38:19;;;;;;;44.30;24.90;;;;;;;;;;5115351;28;20092;-82
2022/01/14 03:40:45;;;;;;;48.67;26.25;;;;;;;;;;5115269;28;20039;-82
2022/01/14 03:43:11;;;;;;;48.03;27.40;;;;;;;;;;5116429;28;20047;-82
2022/01/14 03:45:41;;;;;;;54.17;28.65;;;;;;;;;;5116291;28;20398;-82
2022/01/14 03:48:07;;;;;;;52.60;27.40;;;;;;;;;;5116518;28;20074;-81
2022/01/14 03:50:37;;;;;;;51.50;28.20;;;;;;;;;;5115011;28;20054;-83
2022/01/14 03:53:03;;;;;;;50.67;27.42;;;;;;;;;;5116280;28;20036;-82
2022/01/14 03:55:29;;;;;;;51.17;28.67;;;;;;;;;;5115269;28;20455;-82
2022/01/14 03:57:56;;;;;;;54.65;29.02;;;;;;;;;;5097931;28;20499;-81
2022/01/14 04:00:22;;;;;;;55.03;28.88;;;;;;;;;;5114892;28;20043;-82
2022/01/14 04:02:48;;;;;;;62.97;31.50;;;;;;;;;;5115922;28;20044;-81
2022/01/14 04:05:15;;;;;;;61.63;31.55;;;;;;;;;;5115241;28;20044;-82
2022/01/14 04:07:41;;;;;;;61.22;31.40;;;;;;;;;;5115868;28;20075;-82
2022/01/14 04:10:11;;;;;;;49.92;29.10;;;;;;;;;;5115812;28;20477;-80
2022/01/14 04:17:56;;;;;;;55.20;30.13;;;;;;;;;;5113989;28;20051;-82
2022/01/14 04:20:22;;;;;;;62.15;32.10;;;;;;;;;;5115788;28;20123;-82
2022/01/14 04:22:48;;;;;;;61.20;31.42;;;;;;;;;;5129321;27;20054;-81
2022/01/14 04:25:15;;;;;;;63.30;30.40;;;;;;;;;;5135853;27;20043;-82
2022/01/14 04:27:41;;;;;;;61.53;33.10;;;;;;;;;;5136150;27;20039;-81
2022/01/14 04:30:07;;;;;;;62.22;31.63;;;;;;;;;;5135804;27;20129;-82
2022/01/14 04:32:34;;;;;;;59.53;32.97;;;;;;;;;;5117422;27;20448;-82
2022/01/14 04:35:00;;;;;;;58.58;32.22;;;;;;;;;;5136012;27;20072;-82
2022/01/14 04:37:26;;;;;;;60.50;32.38;;;;;;;;;;5117719;27;20060;-82
2022/01/14 04:39:53;;;;;;;52.60;29.85;;;;;;;;;;5100696;27;20460;-82
2022/01/14 04:42:20;;;;;;;60.83;32.20;;;;;;;;;;5135847;27;20039;-82
2022/01/14 04:44:46;;;;;;;55.10;30.50;;;;;;;;;;5135820;27;20051;-82
2022/01/14 04:47:44;;;;;;;59.00;30.02;;;;;;;;;;5135608;27;20124;-82
2022/01/14 04:49:59;;;;;;;50.97;30.02;;;;;;;;;;5134978;27;20045;-82
2022/01/14 04:52:26;;;;;;;49.45;29.73;;;;;;;;;;5135410;27;20078;-82
2022/01/14 04:54:52;;;;;;;48.45;28.33;;;;;;;;;;5135695;27;20118;-82
2022/01/14 04:57:21;;;;;;;56.42;29.45;;;;;;;;;;5117286;27;20183;-82
2022/01/14 04:59:48;;;;;;;49.63;29.23;;;;;;;;;;5135671;27;20047;-82
2022/01/14 05:02:14;;;;;;;50.40;27.92;;;;;;;;;;5135891;27;20092;-81
2022/01/14 05:04:41;;;;;;;52.38;29.67;;;;;;;;;;5117222;27;20080;-81
2022/01/14 05:07:12;;;;;;;54.95;28.55;;;;;;;;;;5135230;27;20092;-81
2022/01/14 05:09:43;;;;;;;51.75;28.40;;;;;;;;;;5135142;27;20079;-82
2022/01/14 05:12:10;;;;;;;48.97;28.00;;;;;;;;;;5135212;27;20039;-82
2022/01/14 05:14:39;;;;;;;47.22;28.50;;;;;;;;;;5116937;27;20111;-83
2022/01/14 05:17:05;;;;;;;53.83;29.80;;;;;;;;;;5116852;27;20039;-82
2022/01/14 05:19:31;;;;;;;49.40;28.40;;;;;;;;;;5135012;27;20043;-82
2022/01/14 05:21:58;;;;;;;54.33;29.38;;;;;;;;;;5116378;27;20039;-82
2022/01/14 05:24:24;;;;;;;55.15;29.63;;;;;;;;;;5116799;27;20082;-80
2022/01/14 05:26:51;;;;;;;57.20;29.00;;;;;;;;;;5116488;27;20051;-82
2022/01/14 05:29:17;;;;;;;53.65;28.50;;;;;;;;;;5134216;27;20125;-81
2022/01/14 05:31:52;;;;;;;54.88;30.20;;;;;;;;;;5134636;27;20549;-82
2022/01/14 05:34:18;;;;;;;53.40;28.58;;;;;;;;;;5099505;27;20043;-81
2022/01/14 05:36:45;;;;;;;52.15;30.75;;;;;;;;;;5116419;27;20050;-81
2022/01/14 05:39:11;;;;;;;58.78;30.27;;;;;;;;;;5134832;27;20042;-81
2022/01/14 05:41:38;;;;;;;51.00;28.85;;;;;;;;;;5134638;27;20084;-83
2022/01/14 05:44:05;;;;;;;53.35;29.23;;;;;;;;;;5134578;27;20035;-82
2022/01/14 05:46:31;;;;;;;57.17;30.27;;;;;;;;;;5116416;27;20074;-82
2022/01/14 05:48:58;;;;;;;54.58;28.40;;;;;;;;;;5134325;27;20045;-83
2022/01/14 05:51:24;;;;;;;58.75;29.85;;;;;;;;;;5116544;27;20043;-83
2022/01/14 05:53:50;;;;;;;47.13;29.35;;;;;;;;;;5116129;27;20495;-82
2022/01/14 05:56:16;;;;;;;59.72;30.38;;;;;;;;;;5134322;27;20043;-83
2022/01/14 05:58:42;;;;;;;54.97;29.02;;;;;;;;;;5116107;27;20051;-83
2022/01/14 06:01:08;;;;;;;56.38;30.92;;;;;;;;;;5115768;27;20572;-83
2022/01/14 06:03:34;;;;;;;55.20;30.00;;;;;;;;;;5134662;27;20043;-83
2022/01/14 06:06:00;;;;;;;56.00;31.92;;;;;;;;;;5134476;27;20120;-82
2022/01/14 06:08:26;;;;;;;55.97;30.42;;;;;;;;;;5116217;27;20051;-82
2022/01/14 06:10:52;;;;;;;54.00;29.85;;;;;;;;;;5134170;27;20498;-82
2022/01/14 06:13:19;;;;;;;52.15;30.42;;;;;;;;;;5134173;27;20035;-82
2022/01/14 06:15:45;;;;;;;52.03;30.10;;;;;;;;;;5115797;27;20043;-83
2022/01/14 06:18:11;;;;;;;60.78;30.67;;;;;;;;;;5134132;27;20453;-82
2022/01/14 06:20:37;;;;;;;59.17;32.65;;;;;;;;;;5133903;27;20042;-83
2022/01/14 06:23:03;;;;;;;57.35;30.70;;;;;;;;;;5133731;27;20391;-82
2022/01/14 06:25:29;;;;;;;55.22;30.33;;;;;;;;;;5133811;27;20086;-83
2022/01/14 06:27:55;;;;;;;49.50;29.95;;;;;;;;;;5115331;28;20184;-82
2022/01/14 06:30:21;;;;;;;45.20;28.27;;;;;;;;;;5133657;27;20488;-82
2022/01/14 06:32:51;;;;;;;48.38;29.88;;;;;;;;;;5133822;27;20043;-81
2022/01/14 06:35:17;;;;;;;47.47;28.02;;;;;;;;;;5133752;27;20179;-82
2022/01/14 06:37:43;;;;;;;46.67;27.70;;;;;;;;;;5133598;27;20357;-81
2022/01/14 06:40:10;;;;;;;55.17;29.55;;;;;;;;;;5133783;27;20047;-81
2022/01/14 06:42:36;;;;;;;51.15;28.88;;;;;;;;;;5133470;27;20100;-81
2022/01/14 06:45:03;;;;;;;48.72;29.98;;;;;;;;;;5098633;27;20452;-81
2022/01/14 06:47:30;;;;;;;45.83;28.40;;;;;;;;;;5115505;28;20039;-83
2022/01/14 06:49:56;;;;;;;45.85;28.60;;;;;;;;;;5115026;28;20043;-81
2022/01/14 06:52:22;;;;;;;46.40;30.08;;;;;;;;;;5098828;28;20047;-82
2022/01/14 06:54:48;;;;;;;49.58;29.08;;;;;;;;;;5115163;28;20035;-81
2022/01/14 06:57:15;;;;;;;48.50;29.00;;;;;;;;;;5133282;28;20099;-82
2022/01/14 06:59:41;;;;;;;47.45;28.52;;;;;;;;;;5115305;28;20043;-82
2022/01/14 07:02:07;;;;;;;45.15;28.13;;;;;;;;;;5133652;28;20051;-82
2022/01/14 07:04:34;;;;;;;48.47;28.45;;;;;;;;;;5115113;28;20035;-81
2022/01/14 07:07:00;;;;;;;48.40;29.33;;;;;;;;;;5133481;28;20078;-81
2022/01/14 07:09:26;;;;;;;45.67;29.13;;;;;;;;;;5133167;28;20422;-82
2022/01/14 07:11:57;;;;;;;49.25;28.73;;;;;;;;;;5133281;28;20039;-82
2022/01/14 07:14:23;;;;;;;49.13;30.25;;;;;;;;;;5133541;28;20085;-80
2022/01/14 07:16:49;;;;;;;49.30;28.88;;;;;;;;;;5133275;28;20043;-82
2022/01/14 07:19:17;;;;;;;41.03;27.95;;;;;;;;;;5133387;28;20056;-82
2022/01/14 07:21:43;;;;;;;45.53;27.70;;;;;;;;;;5133439;28;20050;-81
2022/01/14 07:24:10;;;;;;;44.88;27.75;;;;;;;;;;5133080;28;20062;-81
2022/01/14 07:26:36;;;;;;;42.03;26.17;;;;;;;;;;5114680;28;20072;-81
2022/01/14 07:29:02;;;;;;;48.72;28.13;;;;;;;;;;5133060;28;20403;-82
2022/01/14 07:31:29;;;;;;;47.92;28.15;;;;;;;;;;5133306;28;20043;-82
2022/01/14 07:33:55;;;;;;;48.03;27.98;;;;;;;;;;5115127;28;20047;-77
2022/01/14 07:36:21;;;;;;;44.58;28.13;;;;;;;;;;5132961;28;20088;-82
2022/01/14 07:38:47;;;;;;;48.85;27.00;;;;;;;;;;5133063;28;20083;-82
2022/01/14 07:41:13;;;;;;;41.78;27.70;;;;;;;;;;5133075;28;20126;-82
2022/01/14 07:43:48;;;;;;;50.05;28.92;;;;;;;;;;5097730;28;20047;-82
2022/01/14 07:46:14;;;;;;;47.28;28.02;;;;;;;;;;5133019;28;20043;-81
2022/01/14 07:48:40;;;;;;;45.35;27.05;;;;;;;;;;5131956;28;20046;-81
2022/01/14 07:51:08;;;;;;;44.67;26.75;;;;;;;;;;5113771;28;20148;-81
2022/01/14 07:53:34;;;;;;;50.70;28.15;;;;;;;;;;5115421;27;20439;-81
2022/01/14 07:56:00;;;;;;;43.17;26.98;;;;;;;;;;5118242;27;20533;-81
2022/01/14 07:58:28;;;;;;;49.22;27.65;;;;;;;;;;5136631;27;20039;-81
2022/01/14 08:00:54;;;;;;;44.70;27.95;;;;;;;;;;5136607;27;20043;-81
2022/01/14 08:03:20;;;;;;;49.10;27.63;;;;;;;;;;5136340;27;20099;-82
2022/01/14 08:05:49;;;;;;;44.10;26.60;;;;;;;;;;5136313;27;20488;-82
2022/01/14 08:08:15;;;;;;;45.13;27.52;;;;;;;;;;5136241;27;20087;-81
2022/01/14 08:10:41;;;;;;;48.13;26.90;;;;;;;;;;5136400;27;20135;-82
2022/01/14 08:13:07;;;;;;;44.17;25.58;;;;;;;;;;5136546;27;20589;-82
2022/01/14 08:15:33;;;;;;;42.15;25.90;;;;;;;;;;5118181;27;20472;-81
2022/01/14 08:18:01;;;;;;;47.72;26.83;;;;;;;;;;5118056;27;20039;-81
2022/01/14 08:20:27;;;;;;;42.53;27.00;;;;;;;;;;5136310;27;20047;-81
2022/01/14 08:22:53;;;;;;;44.60;26.33;;;;;;;;;;5136129;27;20065;-82
2022/01/14 08:25:19;;;;;;;43.78;25.90;;;;;;;;;;5114283;28;20048;-82
2022/01/14 08:27:45;;;;;;;41.67;27.42;;;;;;;;;;5115692;28;20562;-83
2022/01/14 08:30:12;;;;;;;46.78;26.88;;;;;;;;;;5115404;28;20039;-80
2022/01/14 08:32:38;;;;;;;43.83;27.17;;;;;;;;;;5115486;28;20042;-81
2022/01/14 08:35:04;;;;;;;45.65;26.67;;;;;;;;;;5114293;28;20043;-81
2022/01/14 08:37:30;;;;;;;48.15;26.50;;;;;;;;;;5114170;28;20035;-82
2022/01/14 08:39:56;;;;;;;47.17;26.70;;;;;;;;;;5115492;28;20126;-82
2022/01/14 08:42:22;;;;;;;42.88;25.20;;;;;;;;;;5114401;28;20094;-81
2022/01/14 08:44:49;;;;;;;43.67;26.80;;;;;;;;;;5115368;28;20086;-82
2022/01/14 08:47:15;;;;;;;43.65;26.80;;;;;;;;;;5115243;28;20104;-81
2022/01/14 08:49:42;;;;;;;41.35;24.88;;;;;;;;;;5113845;28;20124;-82
2022/01/14 08:52:09;;;;;;;44.70;26.33;;;;;;;;;;5114558;28;20043;-82
2022/01/14 08:54:35;;;;;;;43.83;25.42;;;;;;;;;;5114908;28;20044;-82
2022/01/14 08:57:04;;;;;;;42.22;23.70;;;;;;;;;;5097080;28;20090;-81
2022/01/14 08:59:31;;;;;;;41.05;24.20;;;;;;;;;;5114775;28;20055;-81
2022/01/14 09:01:57;;;;;;;36.05;23.80;;;;;;;;;;5114661;28;20365;-81
2022/01/14 09:04:24;;;;;;;40.78;24.00;;;;;;;;;;5114761;28;20130;-81
2022/01/14 09:06:50;;;;;;;39.92;23.48;;;;;;;;;;5113944;28;20050;-80
2022/01/14 09:09:16;;;;;;;37.92;22.27;;;;;;;;;;5114912;28;20044;-81
2022/01/14 09:11:42;;;;;;;38.00;22.70;;;;;;;;;;5114797;28;20051;-81
2022/01/14 09:14:08;;;;;;;40.90;22.02;;;;;;;;;;5114764;27;20043;-81
2022/01/14 09:16:35;;;;;;;39.42;21.90;;;;;;;;;;5113432;28;20090;-81
2022/01/14 09:19:01;;;;;;;38.55;22.33;;;;;;;;;;5114488;28;20556;-82
2022/01/14 09:21:28;;;;;;;38.95;22.13;;;;;;;;;;5114460;28;20042;-81
2022/01/14 09:24:03;;;;;;;35.33;20.95;;;;;;;;;;5113218;28;20059;-82
2022/01/14 09:26:30;;;;;;;37.92;20.95;;;;;;;;;;5113500;28;20043;-82
2022/01/14 09:28:56;;;;;;;42.47;21.38;;;;;;;;;;5114206;28;20472;-82
2022/01/14 09:31:22;;;;;;;36.33;20.73;;;;;;;;;;5114403;28;20393;-82
2022/01/14 09:33:48;;;;;;;37.72;21.25;;;;;;;;;;5113070;28;20055;-81
2022/01/14 09:36:14;;;;;;;37.00;20.27;;;;;;;;;;5113312;28;20104;-82
2022/01/14 09:38:41;;;;;;;32.13;18.95;;;;;;;;;;5113050;28;20126;-82
2022/01/14 09:41:08;;;;;;;34.67;19.40;;;;;;;;;;5114343;28;20446;-81
2022/01/14 09:43:36;;;;;;;32.97;19.08;;;;;;;;;;5114147;28;20118;-81
2022/01/14 09:46:04;;;;;;;30.00;19.42;;;;;;;;;;5113912;28;20043;-82
2022/01/14 09:48:30;;;;;;;36.97;17.95;;;;;;;;;;5112648;28;20550;-81
2022/01/14 09:50:57;;;;;;;32.05;17.63;;;;;;;;;;5113943;28;20460;-82
2022/01/14 09:53:25;;;;;;;32.50;17.35;;;;;;;;;;5113990;28;20097;-81
2022/01/14 09:55:51;;;;;;;35.30;17.40;;;;;;;;;;5113964;28;20079;-82
2022/01/14 09:58:17;;;;;;;31.30;18.20;;;;;;;;;;5112635;28;20051;-82
2022/01/14 10:00:43;;;;;;;36.13;17.42;;;;;;;;;;5112512;28;20039;-81
2022/01/14 10:03:20;;;;;;;33.13;18.00;;;;;;;;;;5112910;28;20075;-82
2022/01/14 10:05:51;;;;;;;29.00;16.50;;;;;;;;;;5113909;28;20044;-81
2022/01/14 10:08:20;;;;;;;;;;;;;;;;;;5113990;28;20406;-82
2022/01/14 10:10:48;;;;;;;26.23;16.85;;;;;;;;;;5113667;28;19967;-82
2022/01/14 10:13:16;;;;;;;32.50;16.17;;;;;;;;;;5112396;28;20052;-82
2022/01/14 10:15:43;;;;;;;31.20;15.75;;;;;;;;;;5113244;28;20039;-81
2022/01/14 10:18:10;;;;;;;32.10;16.42;;;;;;;;;;5112383;28;20043;-80
2022/01/14 10:20:37;;;;;;;30.33;15.05;;;;;;;;;;5112556;28;20096;-82
2022/01/14 10:23:03;;;;;;;28.05;13.93;;;;;;;;;;5113712;27;20385;-81
2022/01/14 10:25:29;;;;;;;27.23;12.93;;;;;;;;;;5115548;27;20089;-82
2022/01/14 10:27:55;;;;;;;27.27;12.85;;;;;;;;;;5133774;27;20047;-82
2022/01/14 10:33:31;;;;;;;25.02;14.10;;;;;;;;;;5118375;27;20042;-81
2022/01/14 10:36:00;;;;;;;27.88;13.68;;;;;;;;;;5132219;27;20134;-81
2022/01/14 10:41:56;;;;;;;24.30;12.55;;;;;;;;;;5132704;27;20030;-81
2022/01/14 10:44:24;;;;;;;28.63;13.15;;;;;;;;;;5104726;28;20050;-81
2022/01/14 10:47:20;;;;;;;22.30;11.88;;;;;;;;;;5061559;28;20036;-81
2022/01/14 10:49:47;;;;;;;24.50;12.60;;;;;;;;;;5052901;28;20071;-81
2022/01/14 10:52:18;;;;;;;24.80;11.38;;;;;;;;;;5060946;28;20040;-82
2022/01/14 10:54:46;;;;;;;31.63;10.83;;;;;;;;;;5088154;28;20044;-82
2022/01/14 10:57:13;;;;;;;20.30;10.20;;;;;;;;;;5088208;28;20420;-82
2022/01/14 10:59:40;;;;;;;17.33;9.05;;;;;;;;;;5072687;28;20055;-81
2022/01/14 11:02:25;;;;;;;17.95;9.32;;;;;;;;;;5055795;28;20650;-82
2022/01/14 11:05:09;;;;;;;22.02;9.00;;;;;;;;;;5089207;28;20044;-81
2022/01/14 11:07:36;;;;;;;17.38;8.05;;;;;;;;;;5105469;28;20059;-80
2022/01/14 11:10:12;;;;;;;21.58;8.18;;;;;;;;;;5078019;28;20079;-82
2022/01/14 11:12:38;;;;;;;23.10;8.20;;;;;;;;;;5092358;28;20052;-82
2022/01/14 11:15:05;;;;;;;18.63;8.20;;;;;;;;;;5072565;28;20127;-82
2022/01/14 11:17:31;;;;;;;19.92;8.38;;;;;;;;;;5064970;28;20460;-81
2022/01/14 11:19:58;;;;;;;18.70;8.75;;;;;;;;;;5115051;28;20075;-81
2022/01/14 11:25:13;;;;;;;19.02;7.85;;;;;;;;;;5111214;28;20052;-82
2022/01/14 11:27:40;;;;;;;23.30;8.68;;;;;;;;;;5112930;28;20047;-81
2022/01/14 11:30:12;;;;;;;21.83;7.95;;;;;;;;;;5116781;28;20046;-82
2022/01/14 11:32:54;;;;;;;22.20;7.68;;;;;;;;;;5116788;28;20039;-82
2022/01/14 11:35:25;;;;;;;19.65;7.53;;;;;;;;;;5116628;28;20380;-82
2022/01/14 11:37:51;;;;;;;18.27;7.30;;;;;;;;;;5115742;28;20040;-81
2022/01/14 11:40:18;;;;;;;18.80;8.13;;;;;;;;;;5116582;28;20130;-81
2022/01/14 11:43:02;;;;;;;18.58;7.50;;;;;;;;;;5116671;28;20048;-81
2022/01/14 11:45:40;;;;;;;20.20;7.40;;;;;;;;;;5115353;28;20054;-81
2022/01/14 11:48:07;;;;;;;15.48;7.43;;;;;;;;;;5116194;28;20046;-81
2022/01/14 11:50:33;;;;;;;20.27;6.95;;;;;;;;;;5115269;28;20184;-82
2022/01/14 11:53:01;;;;;;;19.80;7.00;;;;;;;;;;5115286;28;20046;-83
2022/01/14 11:55:38;;;;;;;17.80;6.82;;;;;;;;;;5116185;28;20087;-82
2022/01/14 11:58:12;;;;;;;19.52;6.78;;;;;;;;;;5116364;28;20131;-81
2022/01/14 12:00:41;;;;;;;21.17;7.07;;;;;;;;;;5116064;28;20055;-81
2022/01/14 12:03:07;;;;;;;17.63;7.00;;;;;;;;;;5116248;28;20054;-82
2022/01/14 12:05:34;;;;;;;24.40;7.22;;;;;;;;;;5115781;28;20094;-81
2022/01/14 12:08:10;;;;;;;19.65;7.22;;;;;;;;;;5114499;28;20071;-82
2022/01/14 12:10:37;;;;;;;20.63;6.70;;;;;;;;;;5114441;28;20048;-82
2022/01/14 12:13:24;;;;;;;19.48;7.38;;;;;;;;;;5115058;28;20373;-81
2022/01/14 12:15:59;;;;;;;20.90;6.90;;;;;;;;;;5114973;28;20361;-82
2022/01/14 12:18:44;;;;;;;15.93;6.80;;;;;;;;;;5115791;28;20651;-81
2022/01/14 12:21:10;;;;;;;17.30;6.50;;;;;;;;;;5115947;28;20049;-81
2022/01/14 12:23:36;;;;;;;19.17;6.90;;;;;;;;;;5120918;27;20043;-81
2022/01/14 12:26:16;;;;;;;16.75;6.45;;;;;;;;;;5136483;27;20054;-80
2022/01/14 12:28:42;;;;;;;17.52;6.97;;;;;;;;;;5136249;27;20053;-81
2022/01/14 12:31:09;;;;;;;22.35;7.05;;;;;;;;;;5136389;27;20428;-82
2022/01/14 12:33:51;;;;;;;21.80;7.07;;;;;;;;;;5136026;27;20472;-81
2022/01/14 12:36:20;;;;;;;20.30;7.32;;;;;;;;;;5136437;27;20318;-81
2022/01/14 12:38:47;;;;;;;17.25;6.15;;;;;;;;;;5135689;27;20134;-82
2022/01/14 12:41:14;;;;;;;16.30;6.55;;;;;;;;;;5136203;27;20074;-82
2022/01/14 12:44:07;;;;;;;20.00;6.18;;;;;;;;;;5135932;27;20043;-81
2022/01/14 12:46:45;;;;;;;20.13;6.03;;;;;;;;;;5131346;27;20138;-81
2022/01/14 12:49:16;;;;;;;20.77;5.85;;;;;;;;;;5135786;27;20079;-80
2022/01/14 12:51:42;;;;;;;22.80;5.85;;;;;;;;;;5135816;27;20050;-81
2022/01/14 12:54:09;;;;;;;19.67;6.32;;;;;;;;;;5117101;27;20522;-80
2022/01/14 12:56:39;;;;;;;16.58;5.95;;;;;;;;;;5135603;27;20507;-81
2022/01/14 12:59:05;;;;;;;21.30;6.22;;;;;;;;;;5117491;27;20051;-82
2022/01/14 13:01:31;;;;;;;16.70;6.07;;;;;;;;;;5135919;27;20043;-82
2022/01/14 13:04:00;;;;;;;18.95;6.75;;;;;;;;;;5116867;27;20459;-81
2022/01/14 13:06:27;;;;;;;18.75;6.20;;;;;;;;;;5135749;27;20078;-82
2022/01/14 13:08:58;;;;;;;16.83;5.93;;;;;;;;;;5135443;27;20088;-82
2022/01/14 13:11:24;;;;;;;19.73;6.43;;;;;;;;;;5135315;27;20294;-82
2022/01/14 13:13:58;;;;;;;17.05;5.43;;;;;;;;;;5117032;27;20130;-81
2022/01/14 13:16:24;;;;;;;22.30;5.82;;;;;;;;;;5117022;27;20054;-82
2022/01/14 13:18:50;;;;;;;20.77;9.23;;;;;;;;;;5135189;27;20043;-81
2022/01/14 13:21:16;;;;;;;20.05;6.45;;;;;;;;;;5135155;27;20039;-81
2022/01/14 13:23:46;;;;;;;16.98;5.68;;;;;;;;;;5135014;27;20054;-81
2022/01/14 13:26:12;;;;;;;16.10;5.30;;;;;;;;;;5134849;27;20047;-82
2022/01/14 13:28:38;;;;;;;16.77;5.60;;;;;;;;;;5116651;27;20078;-82
2022/01/14 13:31:09;;;;;;;17.83;5.38;;;;;;;;;;5116985;27;20043;-82
2022/01/14 13:33:37;;;;;;;16.65;6.10;;;;;;;;;;5116766;27;20079;-82
2022/01/14 13:36:03;;;;;;;15.38;5.50;;;;;;;;;;5116764;27;20122;-82
2022/01/14 13:38:29;;;;;;;18.33;5.60;;;;;;;;;;5134651;27;20054;-81
2022/01/14 13:40:57;;;;;;;16.10;6.40;;;;;;;;;;5134859;27;20074;-82
2022/01/14 13:43:29;;;;;;;19.92;6.20;;;;;;;;;;5116467;27;20468;-81
2022/01/14 13:46:06;;;;;;;21.10;8.23;;;;;;;;;;5116635;27;20332;-82
2022/01/14 13:48:43;;;;;;;16.73;5.85;;;;;;;;;;5116508;27;20053;-81
2022/01/14 13:51:11;;;;;;;20.60;6.00;;;;;;;;;;5115029;27;20042;-82
2022/01/14 13:53:47;;;;;;;21.58;6.20;;;;;;;;;;5134558;27;20082;-82
2022/01/14 13:56:15;;;;;;;15.20;5.45;;;;;;;;;;5134766;27;20082;-82
2022/01/14 13:58:44;;;;;;;18.70;6.22;;;;;;;;;;5116234;27;20110;-82
2022/01/14 14:01:10;;;;;;;18.77;6.00;;;;;;;;;;5134205;27;20103;-82
2022/01/14 14:03:46;;;;;;;14.32;5.63;;;;;;;;;;5134005;27;20046;-81
2022/01/14 14:06:26;;;;;;;20.70;6.00;;;;;;;;;;5134213;27;20075;-82
2022/01/14 14:17:03;;;;;;;17.75;5.80;;;;;;;;;;5115534;27;20043;-82
2022/01/14 14:19:48;;;;;;;17.80;5.60;;;;;;;;;;5134010;27;20126;-81
2022/01/14 14:22:15;;;;;;;22.60;5.75;;;;;;;;;;5133840;27;20126;-82
2022/01/14 14:24:53;;;;;;;16.92;5.78;;;;;;;;;;5111901;28;20059;-82
2022/01/14 14:27:21;;;;;;;20.38;5.72;;;;;;;;;;5113003;28;20051;-82
2022/01/14 14:29:49;;;;;;;19.95;5.75;;;;;;;;;;5112978;28;20050;-81
2022/01/14 14:32:21;;;;;;;18.35;5.82;;;;;;;;;;5112011;28;20473;-82
2022/01/14 14:34:47;;;;;;;17.90;5.53;;;;;;;;;;5112875;28;20051;-82
2022/01/14 14:37:13;;;;;;;19.40;5.57;;;;;;;;;;5113397;28;20380;-81
2022/01/14 14:39:40;;;;;;;14.85;5.70;;;;;;;;;;5112010;28;20400;-80
2022/01/14 14:42:06;;;;;;;17.85;5.63;;;;;;;;;;5113292;28;20053;-81
2022/01/14 14:44:32;;;;;;;15.65;5.47;;;;;;;;;;5111823;28;20491;-81
2022/01/14 14:46:59;;;;;;;19.08;5.50;;;;;;;;;;5112991;28;20126;-81
2022/01/14 14:49:25;;;;;;;16.40;5.47;;;;;;;;;;5112738;28;20085;-80
2022/01/14 14:51:51;;;;;;;15.90;5.50;;;;;;;;;;5113144;28;20577;-81
2022/01/14 14:54:17;;;;;;;15.77;5.50;;;;;;;;;;5095180;28;20039;-81
2022/01/14 14:56:43;;;;;;;16.35;5.30;;;;;;;;;;5112704;28;20050;-81
2022/01/14 14:59:09;;;;;;;16.77;4.97;;;;;;;;;;5111719;28;20491;-81
2022/01/14 15:01:35;;;;;;;16.30;5.32;;;;;;;;;;5112006;28;20050;-80
2022/01/14 15:04:02;;;;;;;16.02;5.35;;;;;;;;;;5115795;28;20047;-81
2022/01/14 15:06:29;;;;;;;13.52;5.18;;;;;;;;;;5116779;28;20492;-81
2022/01/14 15:08:55;;;;;;;19.55;5.60;;;;;;;;;;5116900;28;20123;-80